createdAt,value
2023-02-04T00:01:39.653Z,51.80
2023-02-04T00:06:42.321Z,51.80
2023-02-04T00:11:45.663Z,51.50
2023-02-04T00:16:48.143Z,51.60
2023-02-04T00:21:50.458Z,51.60
2023-02-04T00:26:52.645Z,51.90
2023-02-04T00:31:54.995Z,52.00
2023-02-04T00:36:57.319Z,52.00
2023-02-04T00:41:59.922Z,52.70
2023-02-04T00:47:02.632Z,52.10
2023-02-04T00:52:05.759Z,51.90
2023-02-04T00:57:08.006Z,51.80
2023-02-04T01:02:10.361Z,51.90
2023-02-04T01:07:12.825Z,52.10
2023-02-04T01:12:15.163Z,52.00
2023-02-04T01:17:19.260Z,52.20
2023-02-04T01:22:22.082Z,52.30
2023-02-04T01:28:23.942Z,52.20
2023-02-04T01:34:06.004Z,52.30
2023-02-04T01:39:08.187Z,52.30
2023-02-04T01:44:10.880Z,52.40
2023-02-04T01:49:13.389Z,51.90
2023-02-04T01:54:17.996Z,52.20
2023-02-04T01:59:20.334Z,52.10
2023-02-04T02:04:30.860Z,52.20
2023-02-04T02:09:37.811Z,52.20
2023-02-04T02:14:41.477Z,52.00
2023-02-04T02:19:44.429Z,51.90
2023-02-04T02:24:46.664Z,51.90
2023-02-04T02:29:49.523Z,52.00
2023-02-04T02:34:51.826Z,52.00
2023-02-04T02:39:54.444Z,51.90
2023-02-04T02:44:57.540Z,51.80
2023-02-04T02:49:59.752Z,51.50
2023-02-04T02:55:02.065Z,51.60
2023-02-04T03:00:14.629Z,51.70
2023-02-04T03:05:17.223Z,51.70
2023-02-04T03:10:19.664Z,51.70
2023-02-04T03:15:21.975Z,51.70
2023-02-04T03:20:27.564Z,51.80
2023-02-04T03:25:30.047Z,51.80
2023-02-04T03:30:33.589Z,51.70
2023-02-04T03:35:36.059Z,51.80
2023-02-04T03:40:38.218Z,51.80
2023-02-04T03:45:45.482Z,51.90
2023-02-04T03:50:48.029Z,51.60
2023-02-04T03:55:50.264Z,51.80
2023-02-04T04:00:52.595Z,51.70
2023-02-04T04:05:54.845Z,51.70
2023-02-04T04:10:57.401Z,52.60
2023-02-04T04:15:59.796Z,51.90
2023-02-04T04:21:02.479Z,52.20
2023-02-04T04:26:04.869Z,52.40
2023-02-04T04:31:07.225Z,53.10
2023-02-04T04:36:09.580Z,52.90
2023-02-04T04:41:11.804Z,53.20
2023-02-04T04:46:14.025Z,53.30
2023-02-04T04:51:16.246Z,53.30
2023-02-04T04:56:19.300Z,53.40
2023-02-04T05:01:22.785Z,53.30
2023-02-04T05:06:25.777Z,53.30
2023-02-04T05:11:27.999Z,53.40
2023-02-04T05:16:30.240Z,53.60
2023-02-04T05:21:32.549Z,53.90
2023-02-04T05:26:35.167Z,53.60
2023-02-04T05:31:37.617Z,53.70
2023-02-04T05:36:39.839Z,53.60
2023-02-04T05:41:42.045Z,53.70
2023-02-04T05:46:44.224Z,53.70
2023-02-04T05:51:46.428Z,53.70
2023-02-04T05:56:48.681Z,53.70
2023-02-04T06:01:51.059Z,53.70
2023-02-04T06:06:53.270Z,53.70
2023-02-04T06:11:55.615Z,53.80
2023-02-04T06:16:57.916Z,54.10
2023-02-04T06:22:00.196Z,54.20
2023-02-04T06:27:02.428Z,54.10
2023-02-04T06:32:04.841Z,54.10
2023-02-04T06:37:07.037Z,54.40
2023-02-04T06:42:09.568Z,54.60
2023-02-04T06:47:11.919Z,54.50
2023-02-04T06:52:14.132Z,54.50
2023-02-04T06:57:16.372Z,54.90
2023-02-04T07:02:18.709Z,55.20
2023-02-04T07:07:20.917Z,55.00
2023-02-04T07:12:23.214Z,54.90
2023-02-04T07:17:25.525Z,55.00
2023-02-04T07:22:27.807Z,55.10
2023-02-04T07:27:30.178Z,55.70
2023-02-04T07:32:33.604Z,56.10
2023-02-04T07:37:35.845Z,56.40
2023-02-04T07:42:38.218Z,56.50
2023-02-04T07:47:46.622Z,56.30
2023-02-04T07:52:48.907Z,56.50
2023-02-04T07:57:51.164Z,56.50
2023-02-04T08:02:53.493Z,56.40
2023-02-04T08:07:55.888Z,56.50
2023-02-04T08:12:58.104Z,56.50
2023-02-04T08:18:00.345Z,56.20
2023-02-04T08:23:02.633Z,56.40
2023-02-04T08:28:05.007Z,56.60
2023-02-04T08:33:07.291Z,56.60
2023-02-04T08:38:09.543Z,56.50
2023-02-04T08:43:11.852Z,56.90
2023-02-04T08:48:14.092Z,57.30
2023-02-04T08:53:16.323Z,57.50
2023-02-04T08:58:18.584Z,56.70
2023-02-04T09:03:20.860Z,56.60
2023-02-04T09:08:23.101Z,57.00
2023-02-04T09:13:25.381Z,56.50
2023-02-04T09:18:27.718Z,56.50
2023-02-04T09:23:30.408Z,56.60
2023-02-04T09:28:33.097Z,56.70
2023-02-04T09:33:36.348Z,56.90
2023-02-04T09:38:38.644Z,56.90
2023-02-04T09:43:45.109Z,56.90
2023-02-04T09:48:48.315Z,57.50
2023-02-04T09:53:53.918Z,58.60
2023-02-04T09:58:56.202Z,58.60
2023-02-04T10:04:02.122Z,58.50
2023-02-04T10:09:04.432Z,58.10
2023-02-04T10:14:10.010Z,58.40
2023-02-04T10:19:15.992Z,58.50
2023-02-04T10:24:21.929Z,58.60
2023-02-04T10:29:25.938Z,58.20
2023-02-04T10:34:44.337Z,57.70
2023-02-04T10:39:46.709Z,58.00
2023-02-04T10:44:48.960Z,57.60
2023-02-04T10:49:54.486Z,57.60
2023-02-04T10:54:57.054Z,57.90
2023-02-04T11:00:02.468Z,58.70
2023-02-04T11:05:09.983Z,58.20
2023-02-04T11:10:19.188Z,58.60
2023-02-04T11:15:50.935Z,58.10
2023-02-04T11:20:57.388Z,57.70
2023-02-04T11:36:24.825Z,57.90
2023-02-04T11:41:30.146Z,58.30
2023-02-04T11:46:32.515Z,58.00
2023-02-04T11:51:35.268Z,57.70
2023-02-04T11:56:37.478Z,57.50
2023-02-04T12:01:40.184Z,57.70
2023-02-04T12:06:42.360Z,57.80
2023-02-04T12:17:16.721Z,58.10
2023-02-04T12:22:19.614Z,57.70
2023-02-04T12:27:22.548Z,57.80
2023-02-04T12:32:24.822Z,57.90
2023-02-04T12:37:27.383Z,57.90
2023-02-04T12:42:29.680Z,57.90
2023-02-04T12:47:31.920Z,57.90
2023-02-04T12:52:34.168Z,57.80
2023-02-04T12:57:36.469Z,57.80
2023-02-04T13:02:38.724Z,57.80
2023-02-04T13:07:41.360Z,57.80
2023-02-04T13:12:44.132Z,58.10
2023-02-04T13:17:46.580Z,58.20
2023-02-04T13:22:48.825Z,58.20
2023-02-04T13:27:51.082Z,57.90
2023-02-04T13:32:53.401Z,58.00
2023-02-04T13:37:56.552Z,58.30
2023-02-04T13:42:58.896Z,58.00
2023-02-04T13:48:01.276Z,57.90
2023-02-04T13:53:03.476Z,58.00
2023-02-04T13:58:05.675Z,58.20
2023-02-04T14:03:07.915Z,58.40
2023-02-04T14:08:10.240Z,58.40
2023-02-04T14:13:12.607Z,58.30
2023-02-04T14:18:16.601Z,58.40
2023-02-04T14:23:18.981Z,58.60
2023-02-04T14:28:21.248Z,58.90
2023-02-04T14:33:23.601Z,58.60
2023-02-04T14:38:30.966Z,58.80
2023-02-04T14:43:37.334Z,58.70
2023-02-04T14:48:40.049Z,58.50
2023-02-04T14:53:46.047Z,58.40
2023-02-04T14:58:50.390Z,58.30
2023-02-04T15:03:52.631Z,58.30
2023-02-04T15:08:55.057Z,58.20
2023-02-04T15:13:57.696Z,58.30
2023-02-04T15:18:59.936Z,58.10
2023-02-04T15:24:02.246Z,58.40
2023-02-04T15:29:24.343Z,58.30
2023-02-04T15:34:46.480Z,58.40
2023-02-04T15:40:10.464Z,58.60
2023-02-04T15:45:33.081Z,58.50
2023-02-04T15:50:35.894Z,58.40
2023-02-04T15:55:38.158Z,58.30
2023-02-04T16:00:40.495Z,58.30
2023-02-04T16:05:42.717Z,58.30
2023-02-04T16:10:44.978Z,58.20
2023-02-04T16:15:47.986Z,58.30
2023-02-04T16:20:50.336Z,58.20
2023-02-04T16:25:52.705Z,58.20
2023-02-04T16:30:54.987Z,58.30
2023-02-04T16:36:02.304Z,58.20
2023-02-04T16:41:04.893Z,58.60
2023-02-04T16:46:08.283Z,58.40
2023-02-04T16:51:11.733Z,58.20
2023-02-04T16:56:14.084Z,58.70
2023-02-04T17:01:17.421Z,58.40
2023-02-04T17:06:19.694Z,58.70
2023-02-04T17:23:18.848Z,57.80
2023-02-04T17:41:54.767Z,58.40
2023-02-04T17:46:59.124Z,59.50
2023-02-04T17:52:01.668Z,59.40
2023-02-04T17:57:17.987Z,59.40
2023-02-04T18:02:27.931Z,59.30
2023-02-04T18:07:30.458Z,59.90
2023-02-04T18:12:35.165Z,59.50
2023-02-04T18:17:37.403Z,59.80
2023-02-04T18:22:39.641Z,59.30
2023-02-04T18:27:41.900Z,59.80
2023-02-04T18:32:44.333Z,59.70
2023-02-04T18:37:50.988Z,59.70
2023-02-04T18:43:10.437Z,59.70
2023-02-04T18:53:30.822Z,59.80
2023-02-04T19:04:01.110Z,59.70
2023-02-04T19:09:21.429Z,59.70
2023-02-04T19:24:46.954Z,59.40
2023-02-04T19:29:49.257Z,59.80
2023-02-04T19:34:53.513Z,59.70
2023-02-04T19:39:56.208Z,60.00
2023-02-04T19:45:02.617Z,60.00
2023-02-04T20:00:50.752Z,60.70
2023-02-04T20:05:53.464Z,60.60
2023-02-04T20:10:56.877Z,61.00
2023-02-04T20:16:00.389Z,60.80
2023-02-04T20:21:11.428Z,60.70
2023-02-04T20:26:14.847Z,60.10
2023-02-04T20:31:24.723Z,60.30
2023-02-04T20:41:38.685Z,60.20
2023-02-04T20:46:41.102Z,60.70
2023-02-04T20:51:43.325Z,60.70
2023-02-04T20:56:45.690Z,60.50
2023-02-04T21:01:50.273Z,60.70
2023-02-04T21:06:55.547Z,60.50
2023-02-04T21:11:58.795Z,60.70
2023-02-04T21:17:01.973Z,60.40
2023-02-04T21:22:04.405Z,60.90
2023-02-04T21:27:06.769Z,61.20
2023-02-04T21:32:09.520Z,61.70
2023-02-04T21:37:11.779Z,60.70
2023-02-04T21:42:14.252Z,61.10
2023-02-04T21:47:17.825Z,61.10
2023-02-04T21:52:20.029Z,61.30
2023-02-04T21:57:22.292Z,61.70
2023-02-04T22:02:25.588Z,61.50
2023-02-04T22:07:28.113Z,61.90
2023-02-04T22:12:30.311Z,61.40
2023-02-04T22:17:32.719Z,62.00
2023-02-04T22:22:35.191Z,61.40
2023-02-04T22:27:37.474Z,62.10
2023-02-04T22:32:39.981Z,61.70
2023-02-04T22:37:42.840Z,62.00
2023-02-04T22:42:45.110Z,62.10
2023-02-04T22:47:47.288Z,61.80
2023-02-04T22:52:49.556Z,62.50
2023-02-04T22:57:51.740Z,62.20
2023-02-04T23:02:54.035Z,62.70
2023-02-04T23:07:56.242Z,62.30
2023-02-04T23:12:58.440Z,62.50
2023-02-04T23:18:00.745Z,63.50
2023-02-04T23:23:03.430Z,62.80
2023-02-04T23:28:05.868Z,62.80
2023-02-04T23:33:08.733Z,62.80
2023-02-04T23:38:11.014Z,62.80
2023-02-04T23:43:13.226Z,62.60
2023-02-04T23:48:15.476Z,62.90
2023-02-04T23:53:19.396Z,62.90
2023-02-04T23:58:21.728Z,62.80
